Time;durP1;ratioP1;P1;durP2;ratioP2;P2;SDS_P1;SDS_P2;PMS_P1;PMS_P2;Temp;Humidity;BMP_temperature;BMP_pressure;BME280_temperature;BME280_humidity;BME280_pressure;Samples;Min_cycle;Max_cycle;Signal;HPM_P1;HPM_P2
2023/07/19 00:01:34;;;;;;;;;16.00;14.00;;;;;22.04;92.21;99251.38;6313550;20;3543212;-46
2023/07/19 00:04:02;;;;;;;;;13.00;11.67;;;;;21.97;93.02;99257.75;6308818;20;3496127;-45
2023/07/19 00:06:31;;;;;;;;;16.33;14.67;;;;;21.92;91.59;99263.75;6308502;20;3528523;-46
2023/07/19 00:08:59;;;;;;;;;12.00;11.67;;;;;21.72;91.61;99263.31;6278273;20;3510719;-48
2023/07/19 00:11:27;;;;;;;;;12.00;12.00;;;;;21.55;92.04;99259.78;6311641;20;3523164;-45
2023/07/19 00:13:55;;;;;;;;;14.00;13.00;;;;;21.36;92.69;99262.88;6314988;20;2790980;-46
2023/07/19 00:16:23;;;;;;;;;11.00;11.00;;;;;21.29;94.22;99270.91;6307976;20;3515885;-47
2023/07/19 00:18:51;;;;;;;;;11.00;11.00;;;;;21.41;93.35;99261.38;6280152;20;3514906;-48
2023/07/19 00:21:29;;;;;;;;;12.00;12.00;;;;;21.39;93.34;99263.41;6309120;20;2614875;-45
2023/07/19 00:23:57;;;;;;;;;12.33;12.33;;;;;21.43;94.06;99267.50;6311339;20;2485753;-44
2023/07/19 00:26:26;;;;;;;;;9.00;9.00;;;;;21.45;94.14;99267.31;6310040;20;3472136;-46
2023/07/19 00:28:54;;;;;;;;;15.33;12.33;;;;;21.53;93.99;99266.44;6309790;20;3512881;-45
2023/07/19 00:31:23;;;;;;;;;12.33;12.33;;;;;21.41;94.11;99246.88;6309587;20;2485672;-47
2023/07/19 00:33:51;;;;;;;;;14.00;13.33;;;;;21.45;94.53;99250.94;6314769;20;3524271;-45
2023/07/19 00:36:19;;;;;;;;;12.00;12.00;;;;;21.35;94.59;99255.69;6320960;20;2781534;-45
2023/07/19 00:38:47;;;;;;;;;15.00;15.00;;;;;21.20;95.97;99245.50;6314216;20;2492054;-44
2023/07/19 00:41:15;;;;;;;;;15.00;15.00;;;;;21.21;95.62;99247.19;6314899;20;3536712;-44
2023/07/19 00:43:43;;;;;;;;;13.00;13.00;;;;;21.16;95.61;99224.19;6311361;20;2483734;-47
2023/07/19 00:46:11;;;;;;;;;15.00;14.33;;;;;21.05;96.64;99218.06;6313143;20;3532662;-47
2023/07/19 00:48:41;;;;;;;;;15.67;14.00;;;;;21.05;96.04;99209.00;6317086;20;3538847;-46
2023/07/19 00:51:10;;;;;;;;;15.00;13.67;;;;;20.91;98.38;99210.59;6311471;20;2489835;-46
2023/07/19 00:53:39;;;;;;;;;5.80;5.80;;;;;21.29;95.69;99209.97;6339188;20;2749206;-45
2023/07/19 00:56:07;;;;;;;;;17.00;14.67;;;;;21.06;96.41;99207.97;6282505;20;2483630;-45
2023/07/19 00:58:36;;;;;;;;;12.67;11.00;;;;;20.78;97.38;99211.09;6318867;20;2795154;-46
2023/07/19 01:01:06;;;;;;;;;15.50;14.00;;;;;20.41;99.87;99199.84;6312561;20;2814954;-44
2023/07/19 01:03:34;;;;;;;;;16.33;14.00;;;;;20.75;98.96;99200.53;6286413;20;2483616;-45
2023/07/19 01:06:03;;;;;;;;;14.00;14.00;;;;;20.43;99.26;99189.59;6311830;20;3533596;-44
2023/07/19 01:08:32;;;;;;;;;16.00;14.00;;;;;20.37;100.00;99177.47;6278016;20;3544073;-47
2023/07/19 01:11:00;;;;;;;;;13.50;13.00;;;;;20.72;98.47;99194.56;6280880;20;2799297;-50
2023/07/19 01:13:28;;;;;;;;;20.00;16.00;;;;;20.90;97.31;99203.41;6276194;20;2830584;-46
2023/07/19 01:15:57;;;;;;;;;15.00;14.50;;;;;20.75;97.43;99200.53;6281267;20;2814960;-48
2023/07/19 01:18:25;;;;;;;;;17.67;13.67;;;;;20.67;98.43;99200.53;6283267;20;2483640;-47
2023/07/19 01:20:53;;;;;;;;;15.00;13.50;;;;;20.75;98.01;99195.09;6314002;20;2803498;-45
2023/07/19 01:23:21;;;;;;;;;16.00;14.33;;;;;20.86;98.15;99191.13;6283111;20;2816983;-45
2023/07/19 01:25:49;;;;;;;;;16.67;14.33;;;;;20.57;99.26;99186.22;6315724;20;3543980;-44
2023/07/19 01:28:17;;;;;;;;;16.00;14.00;;;;;20.82;97.68;99196.06;6316623;20;3546207;-45
2023/07/19 01:30:45;;;;;;;;;16.33;14.33;;;;;21.00;96.51;99197.75;6315460;20;3546091;-48
2023/07/19 01:33:13;;;;;;;;;15.00;14.00;;;;;20.75;97.74;99194.22;6313353;20;3533687;-45
2023/07/19 01:35:55;;;;;;;;;14.67;14.67;;;;;20.70;97.99;99185.72;6282622;20;2489972;-45
2023/07/19 01:38:23;;;;;;;;;14.50;14.50;;;;;20.67;98.44;99186.91;6313439;20;2810672;-45
2023/07/19 01:40:51;;;;;;;;;13.00;13.00;;;;;20.86;96.83;99198.47;6282168;20;2798248;-47
2023/07/19 01:43:19;;;;;;;;;17.00;15.33;;;;;20.65;97.08;99194.41;6279082;20;3556045;-44
2023/07/19 01:45:47;;;;;;;;;14.67;14.67;;;;;20.71;98.14;99196.44;6310016;20;3530482;-44
2023/07/19 01:48:16;;;;;;;;;15.00;15.00;;;;;20.47;99.40;99182.78;6312883;20;3532565;-44
2023/07/19 01:50:47;;;;;;;;;15.67;15.00;;;;;20.70;97.63;99191.16;6316051;20;3532528;-44
2023/07/19 01:53:16;;;;;;;;;15.00;15.00;;;;;20.55;98.67;99194.56;6313610;20;2812864;-45
2023/07/19 01:55:44;;;;;;;;;15.50;15.00;;;;;20.39;99.95;99194.53;6284549;20;2821122;-44
2023/07/19 01:58:12;;;;;;;;;16.00;15.50;;;;;20.43;98.83;99200.50;6281533;20;2824288;-45
2023/07/19 02:00:40;;;;;;;;;17.67;14.67;;;;;20.60;97.72;99196.78;6282584;20;2483683;-47
2023/07/19 02:03:08;;;;;;;;;15.00;15.00;;;;;20.60;96.79;99202.25;6312268;20;2483704;-49
2023/07/19 02:05:39;;;;;;;;;19.00;17.00;;;;;20.58;97.03;99204.28;6311818;20;2833583;-50
2023/07/19 02:08:07;;;;;;;;;17.00;17.00;;;;;20.27;97.01;99196.72;6276160;20;2837924;-49
2023/07/19 02:10:35;;;;;;;;;19.50;14.50;;;;;20.33;96.72;99195.22;6282970;20;2825309;-47
2023/07/19 02:13:03;;;;;;;;;14.50;14.00;;;;;20.08;97.80;99206.06;6280454;20;2487743;-48
2023/07/19 02:15:31;;;;;;;;;18.00;15.50;;;;;19.81;97.05;99198.19;6281081;20;2812807;-46
2023/07/19 02:17:59;;;;;;;;;19.00;16.00;;;;;19.24;100.00;99193.31;6280247;20;2828382;-46
2023/07/19 02:20:27;;;;;;;;;13.67;12.67;;;;;19.01;100.00;99198.44;6281925;20;3539859;-46
2023/07/19 02:22:55;;;;;;;;;18.33;15.67;;;;;18.92;100.00;99200.25;6314166;20;3562995;-46
2023/07/19 02:25:23;;;;;;;;;11.50;11.50;;;;;19.12;100.00;99202.78;6278756;20;2796101;-45
2023/07/19 02:27:51;;;;;;;;;18.67;17.33;;;;;19.36;100.00;99205.63;6313032;20;3567175;-44
2023/07/19 02:30:20;;;;;;;;;15.00;15.00;;;;;19.21;100.00;99207.25;6280566;20;2819029;-46
2023/07/19 02:32:48;;;;;;;;;18.50;16.50;;;;;19.30;100.00;99209.00;6279286;20;2834803;-44
2023/07/19 02:35:17;;;;;;;;;21.00;16.00;;;;;19.16;100.00;99212.31;6286882;20;3577350;-44
2023/07/19 02:37:45;;;;;;;;;16.00;16.00;;;;;19.33;100.00;99205.97;6274873;20;2827401;-45
2023/07/19 02:40:13;;;;;;;;;15.50;15.50;;;;;19.58;100.00;99206.06;6279751;20;2823174;-47
2023/07/19 02:42:42;;;;;;;;;18.50;16.50;;;;;19.49;100.00;99203.31;6279147;20;2835771;-48
2023/07/19 02:45:10;;;;;;;;;16.00;15.50;;;;;19.62;100.00;99196.56;6281679;20;2831639;-47
2023/07/19 02:47:38;;;;;;;;;16.50;15.50;;;;;19.62;100.00;99208.31;6277501;20;2825290;-46
2023/07/19 02:50:07;;;;;;;;;16.00;14.67;;;;;19.41;100.00;99203.28;6282793;20;3544684;-47
2023/07/19 02:52:35;;;;;;;;;16.00;15.00;;;;;19.67;100.00;99199.69;6312036;20;2812807;-47
2023/07/19 02:55:06;;;;;;;;;18.00;16.00;;;;;19.74;100.00;99204.28;6283073;20;3442399;-44
2023/07/19 02:57:34;;;;;;;;;16.50;15.00;;;;;19.56;100.00;99211.66;6306797;20;2823186;-45
2023/07/19 03:00:04;;;;;;;;;18.00;15.50;;;;;19.52;100.00;99202.97;6284930;20;2708682;-47
2023/07/19 03:02:32;;;;;;;;;16.50;16.50;;;;;19.34;100.00;99204.94;6312894;20;2824671;-44
2023/07/19 03:05:02;;;;;;;;;17.00;17.00;;;;;19.50;100.00;99205.00;6285411;20;3569069;-44
2023/07/19 03:07:31;;;;;;;;;17.50;17.50;;;;;19.55;100.00;99206.41;6278089;20;2833611;-47
2023/07/19 03:10:00;;;;;;;;;18.50;17.00;;;;;19.46;100.00;99213.69;6276458;20;2831603;-51
2023/07/19 03:12:29;;;;;;;;;21.00;16.50;;;;;19.56;100.00;99206.22;6279304;20;2837753;-46
2023/07/19 03:14:57;;;;;;;;;20.00;16.67;;;;;19.82;100.00;99206.16;6310424;20;2485813;-46
2023/07/19 03:17:25;;;;;;;;;21.00;17.00;;;;;19.67;100.00;99196.97;6312296;20;3583602;-45
2023/07/19 03:19:53;;;;;;;;;17.00;16.00;;;;;19.74;100.00;99189.81;6311756;20;2826323;-49
2023/07/19 03:22:21;;;;;;;;;20.50;16.50;;;;;19.28;100.00;99190.09;6279430;20;2840415;-44
2023/07/19 03:24:49;;;;;;;;;14.50;14.50;;;;;19.56;100.00;99192.59;6278291;20;2807983;-46
2023/07/19 03:27:17;;;;;;;;;19.50;15.50;;;;;19.22;100.00;99200.78;6277572;20;2483652;-45
2023/07/19 03:29:45;;;;;;;;;17.00;16.00;;;;;19.00;100.00;99196.75;6280463;20;2833635;-47
2023/07/19 03:32:13;;;;;;;;;18.50;17.00;;;;;19.06;100.00;99199.69;6280125;20;2833661;-46
2023/07/19 03:34:41;;;;;;;;;17.00;16.50;;;;;18.93;100.00;99204.72;6278316;20;2826394;-47
2023/07/19 03:37:10;;;;;;;;;19.50;16.00;;;;;19.06;100.00;99207.84;6278819;20;2842028;-45
2023/07/19 03:39:37;;;;;;;;;16.00;15.00;;;;;19.12;100.00;99205.50;6280075;20;2487872;-44
2023/07/19 03:42:07;;;;;;;;;15.50;14.50;;;;;19.26;100.00;99210.34;6277108;20;2807653;-45
2023/07/19 03:44:35;;;;;;;;;17.50;17.00;;;;;19.17;100.00;99204.00;6278527;20;2829474;-44
2023/07/19 03:47:03;;;;;;;;;19.00;16.00;;;;;19.25;100.00;99201.31;6278810;20;2839907;-43
2023/07/19 03:49:32;;;;;;;;;16.50;14.00;;;;;19.25;100.00;99206.78;6279029;20;2815014;-45
2023/07/19 03:52:00;;;;;;;;;21.00;19.33;;;;;19.69;100.00;99211.22;6280568;20;3568395;-45
2023/07/19 03:54:29;;;;;;;;;22.33;19.33;;;;;19.70;100.00;99204.78;6276974;20;2840894;-45
2023/07/19 03:56:57;;;;;;;;;20.33;18.67;;;;;19.69;100.00;99212.09;6312391;20;3570040;-45
2023/07/19 03:59:25;;;;;;;;;16.00;13.50;;;;;19.59;100.00;99207.75;6279607;20;2810723;-45
2023/07/19 04:01:52;;;;;;;;;16.50;15.00;;;;;19.86;100.00;99213.00;6281500;20;2492030;-46
2023/07/19 04:04:21;;;;;;;;;25.33;18.33;;;;;19.81;99.95;99217.25;6279895;20;2861950;-46
2023/07/19 04:06:49;;;;;;;;;35.00;31.00;;;;;19.82;100.00;99224.41;6308802;20;3604605;-45
2023/07/19 04:09:18;;;;;;;;;31.67;29.00;;;;;19.70;99.51;99218.41;6277814;20;3598243;-43
2023/07/19 04:11:47;;;;;;;;;47.00;39.33;;;;;19.54;99.69;99219.16;6278563;20;3594016;-46
2023/07/19 04:14:15;;;;;;;;;23.00;19.50;;;;;19.33;99.68;99216.00;6307127;20;2838831;-46
2023/07/19 04:16:45;;;;;;;;;31.33;28.33;;;;;19.42;99.94;99221.31;6277767;20;2838948;-45
2023/07/19 04:19:13;;;;;;;;;22.33;20.33;;;;;19.49;99.41;99226.97;6311061;20;3567117;-46
2023/07/19 04:21:41;;;;;;;;;18.50;17.00;;;;;19.43;99.38;99227.59;6274652;20;2835733;-49
2023/07/19 04:24:10;;;;;;;;;18.50;18.00;;;;;19.48;99.21;99227.97;6275807;20;2826318;-46
2023/07/19 04:26:38;;;;;;;;;18.50;16.50;;;;;19.35;100.00;99222.97;6275445;20;2821244;-44
2023/07/19 04:29:06;;;;;;;;;22.00;17.67;;;;;19.76;99.24;99223.19;6280051;20;3573245;-47
2023/07/19 04:31:35;;;;;;;;;20.67;17.33;;;;;19.73;98.46;99229.81;6279576;20;3585906;-44
2023/07/19 04:34:03;;;;;;;;;21.00;19.00;;;;;20.00;97.68;99243.38;6275765;20;2839978;-46
2023/07/19 04:36:31;;;;;;;;;19.00;18.00;;;;;20.11;96.40;99237.59;6276462;20;2835776;-45
2023/07/19 04:38:59;;;;;;;;;16.00;16.00;;;;;20.23;97.17;99235.41;6279867;20;3562733;-45
2023/07/19 04:41:27;;;;;;;;;21.00;16.33;;;;;20.41;96.50;99227.09;6312430;20;3557729;-50
2023/07/19 04:43:56;;;;;;;;;17.50;17.50;;;;;20.42;95.53;99223.34;6273325;20;2834674;-46
2023/07/19 04:46:25;;;;;;;;;16.67;16.67;;;;;20.29;96.10;99227.41;6282981;20;3563850;-44
2023/07/19 04:48:53;;;;;;;;;22.00;17.00;;;;;20.52;95.76;99221.31;6276487;20;2824257;-47
2023/07/19 04:51:22;;;;;;;;;19.00;19.00;;;;;20.65;94.90;99221.69;6279561;20;2845267;-51
2023/07/19 04:53:50;;;;;;;;;20.33;17.00;;;;;21.01;94.83;99221.28;6310371;20;3566926;-44
2023/07/19 04:56:19;;;;;;;;;15.50;13.50;;;;;21.23;93.93;99222.47;6275719;20;2819008;-50
2023/07/19 04:58:47;;;;;;;;;18.00;17.00;;;;;21.27;93.43;99221.94;6274750;20;2832588;-46
2023/07/19 05:01:15;;;;;;;;;20.50;19.50;;;;;21.41;92.04;99227.75;6272139;20;3520077;-47
2023/07/19 05:03:43;;;;;;;;;17.33;15.00;;;;;21.65;91.07;99232.28;6308614;20;3554588;-45
2023/07/19 05:06:12;;;;;;;;;16.50;14.50;;;;;21.80;90.13;99226.88;6276262;20;2817104;-53
2023/07/19 05:08:41;;;;;;;;;20.50;17.50;;;;;21.92;90.42;99225.47;6277761;20;2825309;-54
2023/07/19 05:11:10;;;;;;;;;20.00;17.00;;;;;22.19;89.32;99231.50;6276285;20;2839994;-49
2023/07/19 05:13:38;;;;;;;;;20.67;18.00;;;;;22.37;88.20;99223.84;6281515;20;3575244;-50
2023/07/19 05:16:06;;;;;;;;;17.33;17.33;;;;;22.40;86.91;99223.50;6278519;20;3561854;-51
2023/07/19 05:18:34;;;;;;;;;17.33;17.33;;;;;22.62;86.15;99229.13;6276186;20;3577467;-54
2023/07/19 05:21:03;;;;;;;;;19.50;15.50;;;;;22.78;84.21;99223.56;6283246;20;2831576;-50
2023/07/19 05:23:31;;;;;;;;;16.00;15.00;;;;;22.90;84.79;99227.53;6284358;20;3548191;-52
2023/07/19 05:25:59;;;;;;;;;16.67;16.67;;;;;23.02;83.81;99224.41;6318375;20;3565878;-50
2023/07/19 05:28:27;;;;;;;;;13.00;12.00;;;;;23.09;84.48;99228.06;6282930;20;2489832;-54
2023/07/19 05:31:04;;;;;;;;;18.33;16.00;;;;;23.40;81.98;99231.50;6311497;20;3563943;-51
2023/07/19 05:33:33;;;;;;;;;14.33;13.33;;;;;23.27;81.01;99236.78;6315387;20;3541950;-53
2023/07/19 05:36:01;;;;;;;;;16.00;16.00;;;;;23.23;79.87;99232.72;6316981;20;3579498;-53
2023/07/19 05:38:30;;;;;;;;;19.00;15.67;;;;;23.46;79.46;99240.88;6285101;20;2483633;-51
2023/07/19 05:41:06;;;;;;;;;15.33;14.00;;;;;23.56;78.20;99240.56;6320000;20;3544003;-51
2023/07/19 05:43:34;;;;;;;;;16.50;14.50;;;;;23.84;75.81;99247.13;6314700;20;2819027;-55
2023/07/19 05:46:07;;;;;;;;;18.50;15.00;;;;;23.60;77.13;99245.50;6285435;20;2816978;-54
2023/07/19 05:48:36;;;;;;;;;13.33;13.33;;;;;24.27;74.70;99244.47;6285480;20;3490988;-51
2023/07/19 05:51:06;;;;;;;;;12.33;12.33;;;;;24.28;74.30;99254.41;6316189;20;2487833;-52
2023/07/19 05:53:35;;;;;;;;;15.00;13.67;;;;;24.56;72.15;99248.19;6319152;20;3532578;-51
2023/07/19 05:56:03;;;;;;;;;15.33;14.33;;;;;24.52;72.86;99241.41;6317445;20;3546101;-50
2023/07/19 05:58:31;;;;;;;;;18.00;15.00;;;;;24.87;70.54;99244.25;6309085;20;2817994;-52
2023/07/19 06:00:59;;;;;;;;;16.50;16.50;;;;;24.84;71.64;99255.66;6279532;20;2825304;-55
2023/07/19 06:03:28;;;;;;;;;13.50;13.50;;;;;25.01;71.28;99256.22;6284116;20;2803402;-51
2023/07/19 06:05:56;;;;;;;;;13.33;12.67;;;;;24.80;70.12;99262.56;6283985;20;3539845;-54
2023/07/19 06:08:24;;;;;;;;;12.67;10.67;;;;;24.41;72.52;99266.56;6284227;20;3515956;-50
2023/07/19 06:10:53;;;;;;;;;14.67;13.00;;;;;24.38;73.13;99256.84;6282551;20;3525799;-53
2023/07/19 06:13:21;;;;;;;;;13.00;13.00;;;;;24.75;71.32;99275.00;6283019;20;2793087;-53
2023/07/19 06:15:49;;;;;;;;;15.67;15.67;;;;;25.02;70.14;99275.25;6282431;20;2483541;-50
2023/07/19 06:18:18;;;;;;;;;14.33;13.00;;;;;25.34;69.33;99282.09;6314513;20;3515977;-51
2023/07/19 06:20:46;;;;;;;;;16.00;15.00;;;;;25.37;68.79;99289.94;6282069;20;2819053;-53
2023/07/19 06:23:14;;;;;;;;;15.00;13.00;;;;;25.30;69.00;99288.19;6284774;20;2812920;-50
2023/07/19 06:25:45;;;;;;;;;12.33;12.00;;;;;25.28;68.22;99290.31;6280513;20;2496134;-52
2023/07/19 06:28:13;;;;;;;;;15.67;13.67;;;;;25.50;66.83;99277.34;6313913;20;3539880;-55
2023/07/19 06:30:42;;;;;;;;;15.00;13.67;;;;;25.70;67.63;99272.81;6316050;20;3533625;-56
2023/07/19 06:33:11;;;;;;;;;17.33;16.67;;;;;25.62;67.79;99276.59;6283134;20;2835694;-50
2023/07/19 06:35:39;;;;;;;;;15.00;13.50;;;;;25.99;66.81;99271.75;6312508;20;2777422;-50
2023/07/19 06:38:07;;;;;;;;;15.33;15.33;;;;;26.49;65.18;99266.84;6315862;20;3547263;-52
2023/07/19 06:40:35;;;;;;;;;14.33;13.33;;;;;26.12;64.65;99273.69;6315947;20;3533658;-54
2023/07/19 06:43:04;;;;;;;;;16.33;15.00;;;;;26.71;63.30;99274.97;6271700;20;3546159;-53
2023/07/19 06:45:33;;;;;;;;;17.67;16.33;;;;;26.69;64.41;99272.41;6280974;20;2829462;-51
2023/07/19 06:48:01;;;;;;;;;16.67;16.67;;;;;27.16;61.13;99286.22;6315381;20;3567949;-55
2023/07/19 06:50:29;;;;;;;;;14.67;14.67;;;;;27.20;60.40;99290.31;6282713;20;2491937;-52
2023/07/19 06:52:59;;;;;;;;;15.50;15.50;;;;;27.03;60.95;99294.50;6310134;20;2817999;-53
2023/07/19 06:55:27;;;;;;;;;17.00;16.00;;;;;27.12;61.02;99283.06;6285219;20;3558685;-50
2023/07/19 06:57:56;;;;;;;;;12.50;12.50;;;;;26.87;62.63;99284.72;6277026;20;2806528;-55
2023/07/19 07:00:24;;;;;;;;;15.50;14.50;;;;;27.75;58.86;99277.09;6280013;20;2821176;-54
2023/07/19 07:02:52;;;;;;;;;15.00;15.00;;;;;27.91;59.00;99284.06;6278083;20;2483828;-51
2023/07/19 07:05:20;;;;;;;;;18.00;15.67;;;;;27.88;58.00;99289.16;6312142;20;3566016;-56
2023/07/19 07:07:49;;;;;;;;;17.00;15.33;;;;;27.94;58.86;99275.34;6282844;20;3553411;-56
2023/07/19 07:10:17;;;;;;;;;16.00;14.00;;;;;28.26;57.27;99266.31;6280940;20;2483681;-49
2023/07/19 07:12:45;;;;;;;;;17.33;17.00;;;;;28.28;58.50;99265.03;6313664;20;3562167;-51
2023/07/19 07:15:13;;;;;;;;;16.00;14.00;;;;;27.70;59.93;99248.41;6275940;20;3538878;-48
2023/07/19 07:17:43;;;;;;;;;16.00;15.67;;;;;28.16;59.23;99262.09;6277952;20;3551765;-51
2023/07/19 07:20:11;;;;;;;;;17.00;15.00;;;;;28.22;58.79;99261.22;6280317;20;2822196;-55
2023/07/19 07:22:39;;;;;;;;;12.00;10.67;;;;;28.42;56.20;99263.88;6280977;20;2483665;-52
2023/07/19 07:25:07;;;;;;;;;15.00;15.00;;;;;27.69;58.47;99255.84;6316992;20;3540892;-49
2023/07/19 07:27:35;;;;;;;;;14.00;12.67;;;;;27.51;60.59;99258.44;6308289;20;3528430;-51
2023/07/19 07:30:07;;;;;;;;;20.33;16.67;;;;;27.74;61.18;99261.56;6313903;20;3575430;-51
2023/07/19 07:32:35;;;;;;;;;16.00;13.00;;;;;27.56;60.53;99255.88;6277988;20;2807613;-50
2023/07/19 07:35:06;;;;;;;;;13.00;12.33;;;;;27.65;61.65;99243.56;6284468;20;3519200;-53
2023/07/19 07:37:34;;;;;;;;;12.00;12.00;;;;;27.87;61.36;99232.28;6310229;20;2484216;-49
2023/07/19 07:40:03;;;;;;;;;13.33;13.33;;;;;28.28;58.96;99228.25;6313548;20;3539864;-51
2023/07/19 07:42:31;;;;;;;;;14.00;14.00;;;;;28.83;57.14;99223.03;6278426;20;3539849;-52
2023/07/19 07:45:00;;;;;;;;;14.00;13.00;;;;;28.31;59.27;99231.44;6314626;20;3519145;-50
2023/07/19 07:47:28;;;;;;;;;14.67;14.33;;;;;28.55;57.61;99237.28;6310657;20;3544215;-48
2023/07/19 07:49:57;;;;;;;;;13.67;13.67;;;;;28.25;58.63;99240.59;6311666;20;2479541;-55
2023/07/19 07:52:25;;;;;;;;;12.33;9.33;;;;;28.11;59.28;99234.31;6314023;20;2491956;-51
2023/07/19 07:54:53;;;;;;;;;15.67;14.00;;;;;28.29;59.34;99252.06;6312729;20;3548291;-47
2023/07/19 07:57:21;;;;;;;;;15.50;15.00;;;;;28.22;59.21;99249.31;6308450;20;2810098;-51
2023/07/19 07:59:49;;;;;;;;;15.00;13.67;;;;;28.38;59.49;99256.25;6281379;20;3540900;-51
2023/07/19 08:02:17;;;;;;;;;15.00;15.00;;;;;28.13;60.62;99262.53;6311247;20;2811805;-55
2023/07/19 08:04:47;;;;;;;;;15.00;13.00;;;;;28.40;59.58;99259.66;6279436;20;2800403;-53
2023/07/19 08:07:16;;;;;;;;;12.67;12.33;;;;;28.71;59.08;99264.38;6277992;20;3531528;-50
2023/07/19 08:09:44;;;;;;;;;16.00;16.00;;;;;28.21;59.99;99254.00;6314642;20;3544912;-52
2023/07/19 08:12:14;;;;;;;;;15.00;15.00;;;;;28.47;60.04;99252.22;6277988;20;2805555;-57
2023/07/19 08:14:42;;;;;;;;;13.33;11.00;;;;;27.97;60.92;99246.47;6280101;20;3509662;-56
2023/07/19 08:17:11;;;;;;;;;16.67;15.67;;;;;28.28;61.11;99258.63;6313937;20;3558626;-49
2023/07/19 08:19:39;;;;;;;;;15.50;13.50;;;;;28.48;60.23;99250.28;6310496;20;2812807;-56
2023/07/19 08:22:24;;;;;;;;;13.00;13.00;;;;;28.84;58.88;99257.91;6280173;20;2807705;-55
2023/07/19 08:24:54;;;;;;;;;15.33;15.33;;;;;28.63;59.51;99259.13;6284184;20;3549718;-53
2023/07/19 08:27:22;;;;;;;;;12.00;12.00;;;;;28.65;60.30;99259.75;6308196;20;2791955;-54
2023/07/19 08:29:52;;;;;;;;;18.67;15.67;;;;;28.55;59.61;99249.19;6284122;20;3563919;-54
2023/07/19 08:32:20;;;;;;;;;13.33;12.00;;;;;28.80;59.25;99238.16;6279256;20;3529421;-51
2023/07/19 08:34:50;;;;;;;;;10.67;10.00;;;;;29.49;58.13;99232.69;6310717;20;3520115;-53
2023/07/19 08:37:18;;;;;;;;;13.00;11.00;;;;;29.37;57.12;99229.84;6274414;20;2780522;-54
2023/07/19 08:39:46;;;;;;;;;14.67;13.00;;;;;28.59;60.39;99228.31;6283392;20;3537819;-55
2023/07/19 08:42:15;;;;;;;;;10.33;10.33;;;;;28.77;61.05;99229.47;6306637;20;2483715;-50
2023/07/19 08:44:43;;;;;;;;;11.00;11.00;;;;;28.93;60.06;99228.91;6307577;20;2781524;-54
2023/07/19 08:47:13;;;;;;;;;15.67;12.33;;;;;28.98;61.12;99234.63;6277857;20;3510694;-56
2023/07/19 08:49:42;;;;;;;;;12.00;12.00;;;;;28.84;61.58;99235.81;6304411;20;2782725;-52
2023/07/19 08:52:13;;;;;;;;;14.00;14.00;;;;;28.64;61.91;99236.78;6278581;20;3530589;-56
2023/07/19 08:54:41;;;;;;;;;17.33;15.00;;;;;28.14;63.53;99231.09;6311969;20;3552429;-50
2023/07/19 08:57:10;;;;;;;;;13.67;12.33;;;;;28.75;63.25;99228.84;6282865;20;3513921;-56
2023/07/19 08:59:38;;;;;;;;;13.00;11.33;;;;;28.34;64.45;99225.47;6309898;20;3526299;-51
2023/07/19 09:02:06;;;;;;;;;14.00;14.00;;;;;29.13;61.47;99222.44;6282144;20;2805524;-55
2023/07/19 09:04:36;;;;;;;;;14.67;11.00;;;;;29.52;60.23;99227.56;6281892;20;3516041;-53
2023/07/19 09:07:04;;;;;;;;;13.00;13.00;;;;;29.80;59.50;99234.50;6316875;20;3519282;-49
2023/07/19 09:09:32;;;;;;;;;13.00;13.00;;;;;30.14;58.76;99243.25;6316766;20;3527431;-51
2023/07/19 09:12:07;;;;;;;;;12.67;12.00;;;;;30.18;57.09;99252.81;6318890;20;3508695;-52
2023/07/19 09:14:37;;;;;;;;;15.50;14.00;;;;;30.68;57.13;99257.25;6315367;20;2808756;-46
2023/07/19 09:17:06;;;;;;;;;13.00;13.00;;;;;30.84;57.73;99264.94;6285949;20;3526346;-56
2023/07/19 09:19:40;;;;;;;;;14.00;10.00;;;;;30.87;56.61;99260.84;6319708;20;3507622;-56
2023/07/19 09:22:09;;;;;;;;;11.67;11.67;;;;;30.97;55.79;99255.56;6312382;20;3510616;-55
2023/07/19 09:24:54;;;;;;;;;16.50;13.50;;;;;30.62;58.10;99262.66;6278559;20;2806603;-53
2023/07/19 09:27:25;;;;;;;;;12.00;11.50;;;;;30.13;59.21;99249.88;6277247;20;2785796;-52
2023/07/19 09:29:53;;;;;;;;;13.00;10.33;;;;;30.30;58.53;99253.72;6279768;20;3520069;-52
2023/07/19 09:32:22;;;;;;;;;12.00;12.00;;;;;30.57;57.88;99245.03;6317227;20;3531504;-54
2023/07/19 09:34:55;;;;;;;;;18.00;16.00;;;;;31.46;56.39;99251.50;6310796;20;2825454;-54
2023/07/19 09:37:24;;;;;;;;;12.33;12.33;;;;;30.84;56.87;99251.06;6282334;20;3522209;-49
2023/07/19 09:39:54;;;;;;;;;14.50;14.50;;;;;30.15;57.71;99247.72;6314140;20;2800275;-51
2023/07/19 09:42:24;;;;;;;;;10.33;10.33;;;;;29.88;58.01;99241.66;6285147;20;3517977;-53
2023/07/19 09:44:53;;;;;;;;;14.00;14.00;;;;;30.60;57.71;99248.19;6280634;20;2483811;-54
2023/07/19 09:47:24;;;;;;;;;15.00;11.33;;;;;29.97;57.61;99249.44;6311446;20;3512843;-49
2023/07/19 09:49:57;;;;;;;;;13.33;13.33;;;;;30.25;57.59;99247.19;6317302;20;3533678;-49
2023/07/19 09:52:26;;;;;;;;;11.67;11.67;;;;;30.58;57.33;99241.19;6313910;20;3518238;-51
2023/07/19 09:54:56;;;;;;;;;12.67;11.67;;;;;30.80;57.15;99247.88;6275470;20;2491963;-53
2023/07/19 09:57:27;;;;;;;;;15.00;11.67;;;;;30.57;57.42;99239.50;6309312;20;3522173;-49
2023/07/19 09:59:56;;;;;;;;;12.33;11.33;;;;;30.84;55.35;99231.66;6314302;20;3505499;-53
2023/07/19 10:02:24;;;;;;;;;12.50;12.50;;;;;30.77;55.80;99228.94;6316741;20;2483720;-53
2023/07/19 10:04:53;;;;;;;;;13.00;12.00;;;;;30.60;56.21;99236.28;6314561;20;2781534;-48
2023/07/19 10:07:25;;;;;;;;;14.33;12.67;;;;;30.77;56.07;99239.19;6286384;20;3537792;-51
2023/07/19 10:10:14;;;;;;;;;8.67;8.67;;;;;30.65;56.67;99236.41;6310728;20;3468204;-48
2023/07/19 10:12:50;;;;;;;;;13.00;12.50;;;;;30.16;56.33;99235.56;6304416;20;2804644;-49
2023/07/19 10:15:20;;;;;;;;;16.50;14.50;;;;;30.27;56.59;99234.81;6283317;20;2815950;-49
2023/07/19 10:17:50;;;;;;;;;15.00;13.00;;;;;29.57;59.25;99234.31;6280244;20;2805894;-50
2023/07/19 10:20:26;;;;;;;;;12.00;12.00;;;;;29.93;58.76;99227.97;6282538;20;2791931;-49
2023/07/19 10:23:03;;;;;;;;;14.33;14.00;;;;;29.90;57.01;99225.66;6284191;20;3539898;-49
2023/07/19 10:25:48;;;;;;;;;13.67;12.33;;;;;30.23;58.17;99210.53;6316455;20;3529536;-51
2023/07/19 10:28:30;;;;;;;;;11.67;11.67;;;;;30.20;57.20;99211.84;6314578;20;3517066;-46
2023/07/19 10:31:00;;;;;;;;;12.67;12.67;;;;;30.91;55.32;99226.00;6313369;20;3525527;-51
2023/07/19 10:33:48;;;;;;;;;17.00;13.00;;;;;31.27;52.81;99217.47;6308362;20;2819087;-48
2023/07/19 10:36:17;;;;;;;;;12.00;11.00;;;;;31.97;51.95;99214.94;6275072;20;2779651;-50
2023/07/19 10:38:46;;;;;;;;;14.33;13.67;;;;;31.73;50.98;99206.63;6282566;20;3529581;-46
2023/07/19 10:41:17;;;;;;;;;14.00;12.00;;;;;31.30;52.67;99198.66;6312495;20;2797256;-49
2023/07/19 10:43:45;;;;;;;;;12.00;12.00;;;;;31.59;51.62;99188.53;6279162;20;3534646;-51
2023/07/19 10:46:19;;;;;;;;;15.67;15.00;;;;;32.01;51.51;99189.16;6309755;20;3541932;-52
2023/07/19 10:48:53;;;;;;;;;14.00;14.00;;;;;32.16;50.32;99177.53;6270567;20;2788460;-55
2023/07/19 10:51:24;;;;;;;;;14.50;12.00;;;;;31.70;51.47;99182.97;6281803;20;2794201;-52
2023/07/19 10:53:59;;;;;;;;;13.00;13.00;;;;;31.86;51.50;99186.03;6282388;20;2483662;-54
2023/07/19 10:56:28;;;;;;;;;14.00;13.00;;;;;32.25;49.96;99183.53;6315698;20;3529478;-51
2023/07/19 10:59:00;;;;;;;;;13.00;11.67;;;;;32.18;50.22;99171.72;6318544;20;3513842;-52
2023/07/19 11:01:36;;;;;;;;;16.00;13.00;;;;;32.86;48.25;99168.00;6309959;20;2805664;-56
2023/07/19 11:04:04;;;;;;;;;12.00;12.00;;;;;32.25;47.41;99173.25;6285120;20;3507529;-49
2023/07/19 11:06:36;;;;;;;;;18.67;14.33;;;;;32.32;47.81;99167.56;6315375;20;3552355;-55
2023/07/19 11:09:08;;;;;;;;;15.00;13.00;;;;;32.42;47.17;99162.19;6283896;20;3537776;-49